Lacona, NY

9:09 AM EST on January 30, 2015 (GMT -0500)
Db N Ma Consumer Services | Change Station
CLOSE
Current Station
Personal Weather Station
Location: Sandy Creek, NY
Elevation: 499 ft
Nearby Weather Stations
Active Advisory: Wind Chill Advisory

Elev 499 ft 43.64 °N, 76.09 °W | Updated 5 minutes ago

Overcast
Overcast
22.3 °F
Feels Like 22 °F
N
1.6
Wind Variable Wind from WNW

Today
High -- | Low -- °F
--% Chance of Precip.
Yesterday
High -- | Low -- °F
Precip. -- in
7:23 AM 5:12 PM
Waxing Gibbous, 83% visible
Pressure 29.99 in
Visibility 1.8 miles
Clouds Mostly Cloudy 2400 ft
Overcast 3200 ft
Windchill 22 °F
Dew Point 21 °F
Humidity 95%
Rainfall 0.00 in
Snow Depth Not available.
UV 0 out of 12
Pollen .10 out of 12
Air Quality Not available.
Flu Activity Not available.
SPECI KART 301404Z AUTO 34013KT 1 3/4SM -SN BKN024 OVC032 M06/M09 A2999 RMK AO2 P0000 T10561094

More Conditions Fewer Conditions

Pressure 29.99 in
Visibility 1.8 miles
Clouds Mostly Cloudy 2400 ft
Overcast 3200 ft
Windchill 22 °F
Dew Point 21 °F
Humidity 95%
Rainfall 0.00 in
Snow Depth Not available.
UV 0 out of 12
Pollen .10 out of 12
Air Quality Not available.
Flu Activity Not available.
SPECI KART 301404Z AUTO 34013KT 1 3/4SM -SN BKN024 OVC032 M06/M09 A2999 RMK AO2 P0000 T10561094

More Conditions Fewer Conditions

10-Day Weather Forecast

Almanac

Astronomy

Jan. 30, 2015 Rise Set
Actual Time
Civil Twilight
Nautical Twilight
Astronomical Twilight
Moon
Length of Visible Light
Length of Day
Tomorrow will be .
, % of the Moon is Illuminated

Today's Extremes

State Highs State Lows

Community

WunderPhotos

Upload Photos

1,791,761 photos uploaded!

WunderBlogs® & News

Nearby

Air Quality

  Air Quality AQ Index Pollutant
Not available.

Snow Depth

Station Depth Elevation

Earthquake Activity

City Distance Mag. Time & Date
Minimum magnitude displayed is 2.5.

Coastal Water Temperatures

Place Temperature

Nearby Weather Stations